Hitchins, Kentucky
Current Conditions -  °F | °C
As of 2:51 PM on Sunday 23 Nov 2014 (Local Time) from KHTS Reporting Station
Broken Clouds Broken Clouds  
Wind Chill: 64°   Ceiling: 11000
Heat Index: 64°   Visibility: 10mi
Dew Point: 43°   Wind: 10mph
Humidity: 46%   Direction: 140°SE
Pressure: 29.78"   Gusts: 21mph
Location:  38.28°N, 82.92°W
Report Text: KHTS 231951Z 14009G18KT 10SM BKN110 18/06 A2978 RMK AO2 SLP081 T01780061
Loading
Personal Weather Stations






























Interactive Weather Map New forecast layout! Learn more

10-Day Weather Forecast

Advertisements
Track Severe Weather on mobile